Logo AVAMET
Benvolgut visitant, si us plau, ingressa Recuperar contrasenya

Xàbia Tossals/Carrasquetes

Dades diàries. Acumulats / Últims 30 dies disponibles

Data Temperatura (°C) Humitat rel. (%) Pressió rel. (hPa) Vent (km/h) Precipitació
Mínima Mitjana Màxima Amplitud
tèrmica
Mínima Mitjana Màxima Mínima Mitjana Màxima Predom. Mitjana Ràfega
màxima
Total
(mm)
Índex-n
Mínima Mitjana Màxima Mínima Mitjana Màxima n
0 a 1
P0 max
mm 5'
Dades mensuals acumulades fins l'últim dia disponible
11/2019 8,5 14,2 19,6 17,9 16,9 21,9 27,6 19,1 29 53 86 1.001 1.011 1.019   4,7 51,5 0,0
Dades anuals acumulades fins l'últim dia disponible
2019 2,3 14,6 26,1 19,0 11,3 23,7 36,3 34,0 18 71 99 993 1.016 1.035   2,6 53,1 718,6
Últims 30 dies disponibles
11-11-2019 8,5     13,7     17,2 8,7 39 50 64 1.010 1.012 1.014 NW 3,2 32,2 0,0
10-11-2019 12,1     14,3     16,9 4,8 39 51 70 1.009 1.011 1.013 NW 7,7 51,5 0,0
09-11-2019 13,2     15,4     19,6 6,4 35 44 69 1.013 1.016 1.019 NW 5,6 48,3 0,0
08-11-2019 11,7     14,5     17,3 5,6 36 45 57 1.008 1.012 1.016 NW 9,5 45,1 0,0
07-11-2019 10,8     16,4     22,1 11,3 29 55 74 1.007 1.009 1.013 W 0,8 20,9 0,0
06-11-2019 12,7     16,8     21,4 8,7 36 50 70 1.011 1.012 1.013 NW 6,8 43,5 0,0
05-11-2019 14,6     17,9     20,4 5,8 40 52 62 1.006 1.008 1.011 W 4,7 38,6 0,0
04-11-2019 17,7     21,2     26,1 8,4 45 56 70 1.006 1.008 1.011 W 3,1 30,6 0,0
03-11-2019 18,7     21,6     24,6 5,9 46 52 66 1.001 1.004 1.010 W 6,0 46,7 0,0
02-11-2019 19,6     23,1     27,2 7,6 44 57 64 1.004 1.008 1.013 W 2,7 27,4 0,0
01-11-2019 16,1     22,3     27,6 11,5 50 68 86 1.013 1.016 1.019 NW 1,6 24,1 0,0
31-10-2019 18,4     22,2     27,0 8,6 52 66 85 1.018 1.019 1.020 NW 1,6 22,5 0,0
30-10-2019 14,3     19,0     24,4 10,1 58 84 95 1.018 1.019 1.021 NW 0,5 11,3 0,0
29-10-2019 14,2     18,3     23,5 9,3 62 83 95 1.014 1.016 1.019 NW 0,8 12,9 0,2
28-10-2019 12,9     17,2     21,8 8,9 70 88 96 1.016 1.017 1.020 NW 1,1 20,9 0,2
27-10-2019 13,5     17,4     22,4 8,9 72 88 96 1.020 1.021 1.022 NW 0,8 17,7 0,2
26-10-2019 12,0     16,9     22,4 10,4 63 81 95 1.019 1.020 1.022 SO 0,7 11,3 0,0
25-10-2019 11,7     18,0     23,3 11,6 50 67 87 1.020 1.021 1.022 NW 1,4 19,3 0,0
24-10-2019 8,8     15,2     21,8 13,0 47 70 92 1.011 1.015 1.021 W 1,6 29,0 0,0
23-10-2019 9,1     13,7     19,8 10,7 53 79 94 1.005 1.008 1.011 NW 1,6 25,7 1,6
22-10-2019 13,3     15,2     16,7 3,4 72 88 98 1.005 1.009 1.017 NW 5,8 45,1 61,2 0,50 4,50
21-10-2019 13,2     15,3     17,3 4,1 66 92 96 1.016 1.017 1.018 NW 0,5 19,3 9,4 0,34 0,80
20-10-2019 19,2     21,5     25,0 5,8 45 71 87 1.004 1.007 1.010 SSO 2,3 24,1 0,0
19-10-2019 15,8     21,1     26,4 10,6 49 70 88 1.006 1.009 1.013 WSW 1,6 17,7 0,0
18-10-2019 16,6     21,4     27,3 10,7 44 62 75 1.013 1.015 1.017 NW 1,1 20,9 0,0
17-10-2019 13,5     19,5     26,6 13,1 34 63 83 1.015 1.016 1.018 NW 0,8 16,1 0,0
16-10-2019 11,2     18,2     24,6 13,4 34 57 81 1.016 1.018 1.020 SW 1,6 24,1 0,0
15-10-2019 14,8     19,2     24,1 9,3 28 48 68 1.013 1.017 1.020 NW 4,7 37,0 0,0
14-10-2019 17,9     21,3     24,5 6,6 56 89 97 1.011 1.013 1.016 NW 1,1 22,5 2,0
13-10-2019 18,0     21,6     25,7 7,7 72 89 98 1.015 1.016 1.017 NNW 1,8 22,5 0,2
Últims 13 mesos disponibles
10/2019 8,8 15,6 19,9 19,9 16,7 24,6 30,0 21,2 48 76 92 1.007 1.016 1.021 NW 1,7 45,1 75,4
09/2019 13,9 19,6 23,7 23,4 23,3 27,2 32,1 18,2 64 81 92 1.009 1.016 1.022 ESE 2,8 53,1 188,0
08/2019 19,0 21,9 25,3 26,1 26,9 30,6 36,3 17,3 61 76 85 1.009 1.015 1.019 SW 2,6 38,6 29,8
07/2019 19,9 22,0 26,1 26,6 28,7 31,2 36,2 16,3 51 71 81 1.005 1.013 1.020 ESE 2,7 45,1 2,2
06/2019 13,0 17,6 22,8 22,4 21,6 27,1 35,9 22,9 50 70 83 1.008 1.014 1.021 NNW 3,5 41,8 0,8
05/2019 9,8 14,2 19,7 18,7 19,8 23,6 30,1 20,3 54 72 84 1.004 1.015 1.024 WSW 2,2 41,8 12,4
04/2019 7,8 11,2 14,3 15,3 14,3 20,0 28,6 20,8 47 73 95 999 1.012 1.025 W 3,3 43,5 363,0
03/2019 6,4 9,3 13,2 14,2 13,9 19,3 28,1 21,7 45 67 91 1.010 1.022 1.029 NW 2,4 38,6 39,2
02/2019 4,3 7,3 11,5 12,0 13,0 17,4 22,8 18,5 38 70 86 995 1.024 1.033 NW 2,2 53,1 1,0
01/2019 2,3 7,0 11,9 11,3 11,3 16,4 21,5 19,2 40 65 87 1.003 1.018 1.030 NW 2,2 46,7 6,8
12/2018 5,6 8,5 10,9 12,8 13,1 18,5 22,3 16,7 57 77 88 1.008 1.024 1.030 NW 0,8 45,1 4,6
11/2018 7,2 11,3 17,3 14,9 15,1 19,2 23,8 16,6 57 76 94 999 1.015 1.022 NW 1,8 48,3 115,4
10/2018 8,7 15,0 18,4 18,8 14,8 23,2 28,5 19,8 45 76 89 999 1.014 1.024 1,8 37,0 127,2
Tots els anys disponibles
2018 2,1 14,2 25,8 18,4 8,1 23,2 37,5 35,4 37 76 94 999 1.017 1.030 NW 2,2 62,8 778,8
2017 0,4 14,1 26,9 18,7 8,9 23,3 35,9 35,5 38 71 96 999 1.018 1.036 0,0 68,0 720,4
2016 1,9 14,4 24,3 18,7 12,2 23,1 38,2 36,3 35 70 94 995 1.017 1.036 56,0 475,4
2015 3,8 12,1 21,1 16,4 13,1 20,7 30,4 26,6 44 78 91 1.008 1.023 1.036 48,0 232,2
2014
Temperatura (°C)
Humitat relativa (%)
Velocitat del vent i ràfega màxima (km/h)
Direcció del vent (°)
Pressió (hPa)
Precipitació (mm)
Nota sobre les dades: s'avisa a l'usuari de la provisionalitat i no oficialitat d'aquestes dades
Logo AVAMET blanc
Web allotjada a Sollutia
Llicència de Creative CommonsLa web d'AVAMET i els seus continguts estan subjectes a una llicència de
Reconeixement - No Comercial - Compartir igual
Últimes estacions: Xàbia - Alt de la Granadella (Soci), Villena - Sierra de Salinas (Soci), Sueca - Centre (Inforatge), Xàbia - La Plana (Soci), Banyeres de Mariola - Molí Sol (Soci), Villena - Villa Ventín (Soci), Benissa - Convent (Soci), - - -